Time;durP1;ratioP1;P1;durP2;ratioP2;P2;SDS_P1;SDS_P2;PMS_P1;PMS_P2;Temp;Humidity;BMP_temperature;BMP_pressure;BME280_temperature;BME280_humidity;BME280_pressure;Samples;Min_cycle;Max_cycle;Signal;HPM_P1;HPM_P2
2023/03/26 00:00:52;;;;;;;4.30;2.90;;;8.40;99.90;;;;;;5078534;28;20796;-66
2023/03/26 00:03:21;;;;;;;4.30;2.90;;;8.40;99.90;;;;;;5077852;28;20594;-67
2023/03/26 00:05:48;;;;;;;5.90;3.63;;;8.30;99.90;;;;;;5078415;28;20495;-67
2023/03/26 00:08:16;;;;;;;4.87;3.13;;;8.30;99.90;;;;;;5078526;28;20468;-66
2023/03/26 00:10:44;;;;;;;5.17;3.90;;;8.40;99.90;;;;;;5078508;28;20557;-67
2023/03/26 00:13:12;;;;;;;4.93;3.63;;;8.30;99.90;;;;;;5078313;28;20454;-67
2023/03/26 00:15:39;;;;;;;7.77;3.30;;;8.40;99.90;;;;;;5078098;28;20485;-68
2023/03/26 00:18:08;;;;;;;5.10;3.00;;;8.40;99.90;;;;;;5077920;28;20531;-67
2023/03/26 00:20:35;;;;;;;3.43;3.00;;;8.40;99.90;;;;;;5077934;28;20457;-67
2023/03/26 00:23:02;;;;;;;3.30;2.90;;;8.40;99.90;;;;;;5078075;28;20531;-68
2023/03/26 00:25:30;;;;;;;6.50;3.10;;;8.40;99.90;;;;;;5077485;28;20454;-68
2023/03/26 00:27:57;;;;;;;9.13;2.50;;;8.40;99.90;;;;;;5077554;28;20450;-67
2023/03/26 00:30:26;;;;;;;3.70;2.73;;;8.40;99.90;;;;;;5077581;28;20548;-67
2023/03/26 00:32:53;;;;;;;6.70;2.90;;;8.40;99.90;;;;;;5077870;28;20450;-68
2023/03/26 00:35:21;;;;;;;8.23;2.60;;;8.40;99.90;;;;;;5077685;28;20446;-68
2023/03/26 00:37:50;;;;;;;7.17;2.50;;;8.40;99.90;;;;;;5077080;28;20916;-68
2023/03/26 00:40:17;;;;;;;4.50;2.43;;;8.40;99.90;;;;;;5077667;28;20525;-66
2023/03/26 00:42:44;;;;;;;3.90;2.60;;;8.40;99.90;;;;;;5077663;28;20845;-67
2023/03/26 00:45:11;;;;;;;3.07;2.40;;;8.50;99.90;;;;;;5078765;28;20565;-68
2023/03/26 00:47:40;;;;;;;2.77;2.00;;;8.50;99.90;;;;;;5077464;28;20532;-67
2023/03/26 00:50:14;;;;;;;5.13;2.33;;;8.50;99.90;;;;;;5077039;28;20860;-68
2023/03/26 00:52:41;;;;;;;3.23;1.90;;;8.40;99.90;;;;;;5077109;28;20816;-68
2023/03/26 00:55:09;;;;;;;2.10;1.90;;;8.40;99.90;;;;;;5076946;28;20450;-68
2023/03/26 00:57:36;;;;;;;2.20;1.80;;;8.40;99.90;;;;;;5077139;28;20451;-68
2023/03/26 01:00:14;;;;;;;4.47;1.80;;;8.40;99.90;;;;;;5076701;28;20537;-68
2023/03/26 01:02:44;;;;;;;6.20;2.13;;;8.30;99.90;;;;;;5076598;28;20492;-67
2023/03/26 01:05:41;;;;;;;4.33;2.00;;;8.40;99.90;;;;;;5076968;28;20482;-68
2023/03/26 01:08:16;;;;;;;6.07;1.90;;;8.40;99.90;;;;;;5076867;28;20765;-68
2023/03/26 01:10:49;;;;;;;2.87;1.83;;;8.40;99.90;;;;;;5076685;28;20537;-68
2023/03/26 01:13:17;;;;;;;2.23;1.30;;;8.40;99.90;;;;;;5076255;28;20917;-68
2023/03/26 01:15:48;;;;;;;2.20;1.57;;;8.40;99.90;;;;;;5076032;28;20465;-69
2023/03/26 01:18:18;;;;;;;5.30;1.70;;;8.40;99.90;;;;;;5076301;28;20442;-69
2023/03/26 01:20:48;;;;;;;6.80;2.10;;;8.40;99.90;;;;;;5076005;28;20518;-69
2023/03/26 01:23:23;;;;;;;3.37;1.87;;;8.40;99.90;;;;;;5076199;28;20449;-69
2023/03/26 01:25:59;;;;;;;3.10;2.27;;;8.30;99.90;;;;;;5076278;28;20469;-69
2023/03/26 01:28:31;;;;;;;2.97;2.10;;;8.10;99.90;;;;;;5075735;28;20465;-69
2023/03/26 01:31:05;;;;;;;2.40;1.73;;;8.00;99.90;;;;;;5076419;28;20538;-69
2023/03/26 01:33:39;;;;;;;3.90;2.20;;;7.90;99.90;;;;;;5075924;28;20533;-69
2023/03/26 01:36:11;;;;;;;4.20;2.80;;;7.90;99.90;;;;;;5075851;28;20465;-68
2023/03/26 01:38:47;;;;;;;5.03;2.03;;;7.80;99.90;;;;;;5076387;28;20818;-68
2023/03/26 01:41:20;;;;;;;4.50;2.20;;;7.80;99.90;;;;;;5075744;28;20466;-68
2023/03/26 01:43:51;;;;;;;5.10;2.40;;;7.80;99.90;;;;;;5075554;28;20785;-69
2023/03/26 01:46:20;;;;;;;4.60;1.77;;;7.90;99.90;;;;;;5075553;28;20453;-68
2023/03/26 01:48:48;;;;;;;2.80;1.60;;;7.90;99.90;;;;;;5075603;28;20874;-68
2023/03/26 01:51:26;;;;;;;2.00;1.60;;;7.80;99.90;;;;;;5075515;28;20486;-69
2023/03/26 01:53:55;;;;;;;2.33;1.57;;;7.80;99.90;;;;;;5075275;28;20438;-69
2023/03/26 01:56:29;;;;;;;3.70;1.53;;;7.80;99.90;;;;;;5075235;28;20454;-69
2023/03/26 01:59:09;;;;;;;4.07;1.37;;;7.90;99.90;;;;;;5074994;28;20443;-69
2023/03/26 02:01:43;;;;;;;3.20;1.80;;;7.80;99.90;;;;;;5075342;28;20654;-69
2023/03/26 02:04:20;;;;;;;2.13;1.20;;;7.90;99.90;;;;;;5074840;28;20495;-68
2023/03/26 02:06:53;;;;;;;4.37;1.43;;;7.90;99.90;;;;;;5074885;28;20895;-68
2023/03/26 02:09:24;;;;;;;3.47;1.40;;;7.90;99.90;;;;;;5075027;28;20930;-69
2023/03/26 02:11:54;;;;;;;1.83;1.20;;;7.90;99.90;;;;;;5074719;28;20759;-68
2023/03/26 02:14:21;;;;;;;1.87;1.40;;;7.90;99.90;;;;;;5074955;28;20541;-69
2023/03/26 02:16:50;;;;;;;1.40;1.20;;;7.90;99.90;;;;;;5075011;28;20537;-69
2023/03/26 02:19:20;;;;;;;2.00;1.40;;;7.90;99.90;;;;;;5075085;28;20469;-69
2023/03/26 02:21:48;;;;;;;2.60;1.30;;;7.90;99.90;;;;;;5075051;28;20508;-69
2023/03/26 02:24:15;;;;;;;2.13;1.50;;;7.90;99.90;;;;;;5074594;28;20478;-69
2023/03/26 02:26:42;;;;;;;2.40;1.67;;;7.90;99.90;;;;;;5075080;28;20544;-69
2023/03/26 02:29:11;;;;;;;4.73;1.73;;;7.90;99.90;;;;;;5074744;28;20450;-69
2023/03/26 02:31:38;;;;;;;2.20;1.80;;;7.80;99.90;;;;;;5074752;28;20777;-69
2023/03/26 02:34:04;;;;;;;5.67;2.47;;;7.70;99.90;;;;;;5074865;28;20465;-69
2023/03/26 02:36:31;;;;;;;3.50;1.87;;;7.70;99.90;;;;;;5074898;28;20787;-69
2023/03/26 02:38:59;;;;;;;2.30;2.10;;;7.70;99.90;;;;;;5074513;28;21001;-69
2023/03/26 02:41:26;;;;;;;2.60;1.80;;;7.70;99.90;;;;;;5074537;28;20984;-69
2023/03/26 02:43:53;;;;;;;2.53;2.00;;;7.70;99.90;;;;;;5074739;28;20485;-69
2023/03/26 02:46:21;;;;;;;2.73;1.83;;;7.80;99.90;;;;;;5074733;28;20485;-69
2023/03/26 02:48:48;;;;;;;4.67;2.40;;;7.70;99.90;;;;;;5074720;28;20784;-69
2023/03/26 02:51:17;;;;;;;3.63;2.30;;;7.80;99.90;;;;;;5074645;28;20545;-69
2023/03/26 02:53:44;;;;;;;4.53;2.37;;;7.80;99.90;;;;;;5074395;28;20461;-68
2023/03/26 02:56:12;;;;;;;2.83;2.03;;;7.80;99.90;;;;;;5074345;28;20454;-69
2023/03/26 02:58:38;;;;;;;3.23;1.77;;;7.80;99.90;;;;;;5074646;28;20465;-69
2023/03/26 03:01:05;;;;;;;4.90;2.30;;;7.80;99.90;;;;;;5074647;28;20468;-69
2023/03/26 03:03:35;;;;;;;2.93;2.30;;;7.80;99.90;;;;;;5074198;28;20970;-68
2023/03/26 03:06:02;;;;;;;3.97;2.10;;;7.80;99.90;;;;;;5074425;28;20478;-69
2023/03/26 03:08:29;;;;;;;3.33;2.30;;;7.90;99.90;;;;;;5074608;28;20458;-69
2023/03/26 03:10:57;;;;;;;2.60;2.00;;;7.90;99.90;;;;;;5075253;28;20454;-68
2023/03/26 03:13:24;;;;;;;3.73;2.10;;;7.90;99.90;;;;;;5074134;28;20458;-67
2023/03/26 03:15:51;;;;;;;3.20;2.30;;;7.80;99.90;;;;;;5074350;28;20544;-69
2023/03/26 03:18:17;;;;;;;2.40;2.10;;;7.80;99.90;;;;;;5074137;28;20458;-69
2023/03/26 03:20:46;;;;;;;3.40;2.30;;;7.90;99.90;;;;;;5073769;28;20553;-68
2023/03/26 03:23:13;;;;;;;2.37;1.97;;;7.80;99.90;;;;;;5074209;28;20852;-68
2023/03/26 03:25:40;;;;;;;4.10;2.23;;;7.90;99.90;;;;;;5078164;28;20564;-68
2023/03/26 03:28:08;;;;;;;2.03;1.80;;;7.90;99.90;;;;;;5078107;28;20453;-69
2023/03/26 03:30:35;;;;;;;4.03;2.10;;;7.90;99.90;;;;;;5078180;28;20454;-68
2023/03/26 03:33:02;;;;;;;3.50;2.17;;;7.90;99.90;;;;;;5078037;28;20454;-69
2023/03/26 03:35:30;;;;;;;3.50;2.47;;;7.90;99.90;;;;;;5078109;28;20461;-69
2023/03/26 03:37:59;;;;;;;3.90;2.57;;;8.00;99.90;;;;;;5078042;28;20553;-69
2023/03/26 03:40:26;;;;;;;3.30;2.47;;;8.00;99.90;;;;;;5078113;28;20457;-69
2023/03/26 03:42:53;;;;;;;4.97;2.30;;;8.00;99.90;;;;;;5077955;28;20910;-69
2023/03/26 03:45:20;;;;;;;3.47;2.50;;;7.90;99.90;;;;;;5078309;28;20587;-69
2023/03/26 03:47:46;;;;;;;2.83;2.47;;;8.00;99.90;;;;;;5077676;28;20549;-68
2023/03/26 03:50:13;;;;;;;4.40;2.80;;;7.90;99.90;;;;;;5077821;28;20794;-68
2023/03/26 03:52:40;;;;;;;2.93;2.50;;;8.00;99.90;;;;;;5077823;28;20556;-67
2023/03/26 03:55:09;;;;;;;5.77;3.00;;;8.00;99.90;;;;;;5077870;28;20541;-67
2023/03/26 03:57:37;;;;;;;6.17;3.20;;;7.90;99.90;;;;;;5077655;28;20458;-69
2023/03/26 04:00:07;;;;;;;4.00;2.43;;;8.00;99.90;;;;;;5077316;28;20549;-68
2023/03/26 04:02:35;;;;;;;3.30;2.80;;;8.00;99.90;;;;;;5077148;28;20482;-69
2023/03/26 04:05:02;;;;;;;3.27;2.30;;;8.00;99.90;;;;;;5077436;28;20474;-68
2023/03/26 04:07:31;;;;;;;3.00;2.63;;;7.90;99.90;;;;;;5077523;28;20465;-69
2023/03/26 04:10:00;;;;;;;4.60;3.10;;;7.90;99.90;;;;;;5077325;28;20553;-69
2023/03/26 04:12:29;;;;;;;4.03;2.50;;;7.90;99.90;;;;;;5077434;28;20780;-70
2023/03/26 04:14:57;;;;;;;3.87;2.50;;;7.90;99.90;;;;;;5077395;28;20871;-69
2023/03/26 04:17:24;;;;;;;7.13;3.40;;;7.80;99.90;;;;;;5077299;28;20466;-68
2023/03/26 04:19:53;;;;;;;4.70;2.30;;;7.80;99.90;;;;;;5077338;28;20484;-69
2023/03/26 04:22:20;;;;;;;2.30;2.10;;;7.70;99.90;;;;;;5076883;28;20501;-69
2023/03/26 04:24:48;;;;;;;5.00;2.53;;;7.80;99.90;;;;;;5077083;28;20488;-68
2023/03/26 04:27:19;;;;;;;3.03;2.50;;;7.70;99.90;;;;;;5077562;28;20552;-68
2023/03/26 04:29:49;;;;;;;5.20;2.90;;;7.80;99.90;;;;;;5076745;28;20503;-68
2023/03/26 04:32:25;;;;;;;5.50;3.10;;;7.70;99.90;;;;;;5077002;28;20454;-69
2023/03/26 04:34:52;;;;;;;4.03;2.17;;;7.70;99.90;;;;;;5076797;28;20806;-68
2023/03/26 04:37:26;;;;;;;4.10;2.30;;;7.70;99.90;;;;;;5077036;28;20583;-69
2023/03/26 04:39:54;;;;;;;4.47;2.40;;;7.80;99.90;;;;;;5077121;28;20435;-68
2023/03/26 04:42:21;;;;;;;2.20;2.00;;;7.80;99.90;;;;;;5076960;28;20454;-69
2023/03/26 04:44:51;;;;;;;4.87;2.43;;;7.80;99.90;;;;;;5076790;28;20774;-69
2023/03/26 04:47:18;;;;;;;3.93;2.40;;;7.80;99.90;;;;;;5076919;28;20454;-69
2023/03/26 04:49:46;;;;;;;3.43;3.13;;;7.80;99.90;;;;;;5076627;28;20454;-68
2023/03/26 04:52:13;;;;;;;2.13;1.70;;;7.80;99.90;;;;;;5076593;28;20462;-68
2023/03/26 04:54:40;;;;;;;4.23;2.27;;;7.80;99.90;;;;;;5076608;28;20453;-68
2023/03/26 04:57:13;;;;;;;3.80;2.30;;;7.80;99.90;;;;;;5076744;28;20477;-68
2023/03/26 04:59:41;;;;;;;3.70;2.10;;;7.80;99.90;;;;;;5076377;28;20453;-68
2023/03/26 05:02:11;;;;;;;3.40;2.20;;;7.80;99.90;;;;;;5076090;28;20977;-68
2023/03/26 05:04:39;;;;;;;3.80;2.60;;;7.90;99.90;;;;;;5076703;28;20465;-68
2023/03/26 05:07:06;;;;;;;2.67;1.60;;;7.80;99.90;;;;;;5076710;28;20446;-68
2023/03/26 05:09:33;;;;;;;3.53;1.80;;;7.80;99.90;;;;;;5076410;28;20454;-68
2023/03/26 05:12:00;;;;;;;5.57;1.90;;;7.80;99.90;;;;;;5076257;28;20907;-68
2023/03/26 05:14:26;;;;;;;5.27;1.97;;;7.80;99.90;;;;;;5076158;28;20858;-68
2023/03/26 05:16:53;;;;;;;2.20;1.90;;;7.70;99.90;;;;;;5076071;28;20533;-68
2023/03/26 05:19:22;;;;;;;5.83;2.50;;;7.70;99.90;;;;;;5075994;28;20927;-68
2023/03/26 05:21:49;;;;;;;2.20;1.93;;;7.70;99.90;;;;;;5076238;28;20450;-69
2023/03/26 05:24:15;;;;;;;2.90;2.07;;;7.70;99.90;;;;;;5076147;28;20464;-69
2023/03/26 05:26:42;;;;;;;5.50;2.03;;;7.70;99.90;;;;;;5076079;28;20492;-68
2023/03/26 05:29:09;;;;;;;5.17;2.20;;;7.80;99.90;;;;;;5076048;28;20834;-68
2023/03/26 05:31:36;;;;;;;4.47;2.50;;;7.80;99.90;;;;;;5076199;28;20533;-68
2023/03/26 05:34:03;;;;;;;4.87;2.47;;;7.80;99.90;;;;;;5076045;28;20462;-67
2023/03/26 05:36:31;;;;;;;3.60;2.50;;;7.70;99.90;;;;;;5075733;28;20456;-68
2023/03/26 05:38:58;;;;;;;3.87;2.70;;;7.80;99.90;;;;;;5076196;28;20454;-69
2023/03/26 05:41:25;;;;;;;3.60;2.57;;;7.80;99.90;;;;;;5075304;28;20784;-69
2023/03/26 05:43:52;;;;;;;6.03;2.70;;;7.80;99.90;;;;;;5075623;28;20454;-69
2023/03/26 05:46:21;;;;;;;4.10;2.50;;;7.80;99.90;;;;;;5074731;28;20478;-69
2023/03/26 05:48:48;;;;;;;3.03;2.43;;;7.80;99.90;;;;;;5075560;28;20512;-68
2023/03/26 05:51:15;;;;;;;7.77;3.30;;;7.70;99.90;;;;;;5075096;28;20455;-68
2023/03/26 05:53:44;;;;;;;2.40;2.00;;;7.70;99.90;;;;;;5075270;28;20903;-68
2023/03/26 05:56:10;;;;;;;5.10;2.57;;;7.70;99.90;;;;;;5074983;28;20455;-69
2023/03/26 05:58:38;;;;;;;7.37;2.40;;;7.60;99.90;;;;;;5075216;28;20454;-69
2023/03/26 06:01:07;;;;;;;6.67;2.80;;;7.60;99.90;;;;;;5075281;28;20548;-68
2023/03/26 06:03:35;;;;;;;5.37;2.97;;;7.60;99.90;;;;;;5075064;28;20569;-68
2023/03/26 06:06:03;;;;;;;3.77;2.60;;;7.50;99.90;;;;;;5075144;28;20485;-67
2023/03/26 06:08:31;;;;;;;4.80;2.70;;;7.40;99.90;;;;;;5075459;28;20454;-67
2023/03/26 06:11:04;;;;;;;2.70;2.50;;;7.30;99.90;;;;;;5075569;28;20549;-67
2023/03/26 06:13:31;;;;;;;8.67;2.33;;;7.30;99.90;;;;;;5075451;28;20882;-68
2023/03/26 06:15:58;;;;;;;5.10;2.10;;;7.30;99.90;;;;;;5074887;28;20450;-67
2023/03/26 06:18:25;;;;;;;2.80;1.80;;;7.20;99.90;;;;;;5074826;28;20545;-68
2023/03/26 06:20:52;;;;;;;2.73;1.63;;;7.10;99.90;;;;;;5075031;28;20497;-67
2023/03/26 06:23:20;;;;;;;2.87;1.53;;;7.00;99.90;;;;;;5074651;28;20501;-67
2023/03/26 06:25:47;;;;;;;1.60;1.30;;;7.00;99.90;;;;;;5075088;28;20486;-67
2023/03/26 06:28:15;;;;;;;2.27;1.60;;;6.90;99.90;;;;;;5075141;28;20545;-67
2023/03/26 06:30:42;;;;;;;3.57;2.27;;;6.90;99.90;;;;;;5074992;28;20831;-67
2023/03/26 06:33:09;;;;;;;3.03;1.80;;;6.90;99.90;;;;;;5074741;28;20458;-67
2023/03/26 06:35:36;;;;;;;3.70;1.80;;;6.90;99.90;;;;;;5075029;28;20503;-67
2023/03/26 06:38:04;;;;;;;3.67;2.10;;;6.90;99.90;;;;;;5074973;28;20455;-67
2023/03/26 06:40:32;;;;;;;5.73;1.77;;;6.90;99.90;;;;;;5075139;28;20458;-68
2023/03/26 06:42:59;;;;;;;8.20;2.03;;;7.00;99.90;;;;;;5074446;28;20490;-67
2023/03/26 06:45:28;;;;;;;2.70;1.40;;;7.00;99.90;;;;;;5074382;28;20474;-67
2023/03/26 06:47:55;;;;;;;3.20;1.90;;;7.00;99.90;;;;;;5074808;28;20557;-69
2023/03/26 06:50:22;;;;;;;2.70;1.63;;;7.00;99.90;;;;;;5074548;28;20458;-69
2023/03/26 06:52:49;;;;;;;3.23;1.87;;;7.00;99.90;;;;;;5074776;28;20457;-68
2023/03/26 06:55:16;;;;;;;3.17;1.87;;;7.10;99.90;;;;;;5074793;28;20549;-69
2023/03/26 06:57:44;;;;;;;4.83;1.93;;;7.10;99.90;;;;;;5074383;28;20932;-68
2023/03/26 07:00:12;;;;;;;2.40;1.50;;;7.10;99.90;;;;;;5074927;28;20493;-68
2023/03/26 07:02:41;;;;;;;5.23;2.17;;;7.20;99.90;;;;;;5074424;28;20486;-68
2023/03/26 07:05:08;;;;;;;4.17;2.23;;;7.30;99.90;;;;;;5074925;28;20466;-68
2023/03/26 07:07:35;;;;;;;3.10;1.73;;;7.40;99.90;;;;;;5074853;28;20533;-68
2023/03/26 07:10:02;;;;;;;3.43;2.20;;;7.50;99.90;;;;;;5075054;28;20464;-68
2023/03/26 07:12:29;;;;;;;2.93;1.70;;;7.60;99.90;;;;;;5075206;28;20476;-68
2023/03/26 07:14:56;;;;;;;3.80;2.20;;;7.60;99.90;;;;;;5075645;28;20454;-68
2023/03/26 07:17:23;;;;;;;2.60;1.70;;;7.70;99.90;;;;;;5075614;28;20456;-68
2023/03/26 07:19:52;;;;;;;3.90;1.67;;;7.70;99.90;;;;;;5075385;28;20486;-68
2023/03/26 07:22:21;;;;;;;3.80;2.00;;;7.80;99.90;;;;;;5075183;28;20903;-68
2023/03/26 07:24:49;;;;;;;8.63;2.70;;;7.90;99.90;;;;;;5074672;28;20551;-68
2023/03/26 07:27:35;;;;;;;4.63;2.17;;;8.00;99.90;;;;;;5075356;28;20500;-68
2023/03/26 07:30:08;;;;;;;10.17;2.13;;;8.00;99.90;;;;;;5075015;28;20478;-68
2023/03/26 07:32:47;;;;;;;3.67;1.67;;;8.10;99.90;;;;;;5074959;28;20442;-69
2023/03/26 07:35:21;;;;;;;3.10;1.77;;;8.10;99.90;;;;;;5074847;28;20537;-68
2023/03/26 07:37:59;;;;;;;3.27;1.50;;;8.10;99.90;;;;;;5074958;28;20540;-69
2023/03/26 07:40:42;;;;;;;2.13;1.93;;;8.10;99.90;;;;;;5074451;28;20442;-69
2023/03/26 07:43:23;;;;;;;3.47;1.80;;;8.10;99.90;;;;;;5074810;28;20442;-69
2023/03/26 07:45:51;;;;;;;3.60;2.03;;;8.20;99.90;;;;;;5074173;28;20470;-69
2023/03/26 07:48:20;;;;;;;6.33;1.90;;;8.30;99.90;;;;;;5074249;28;20549;-69
2023/03/26 07:50:49;;;;;;;3.43;1.40;;;8.30;99.90;;;;;;5073907;28;20458;-70
2023/03/26 07:53:17;;;;;;;7.47;1.77;;;8.40;99.90;;;;;;5074310;28;20471;-69
2023/03/26 07:55:51;;;;;;;2.73;1.47;;;8.40;99.90;;;;;;5074023;28;20545;-68
2023/03/26 07:58:39;;;;;;;3.30;1.73;;;8.40;99.90;;;;;;5074724;28;20774;-68
2023/03/26 08:01:13;;;;;;;2.80;1.60;;;8.30;99.90;;;;;;5074625;28;20478;-69
2023/03/26 08:04:05;;;;;;;3.97;2.07;;;8.30;99.90;;;;;;5073999;28;21049;-69
2023/03/26 08:06:36;;;;;;;6.50;2.07;;;8.10;99.90;;;;;;5073749;28;20472;-69
2023/03/26 08:09:12;;;;;;;5.97;1.93;;;8.20;99.90;;;;;;5073880;28;20452;-68
2023/03/26 08:11:47;;;;;;;5.80;2.00;;;8.20;99.90;;;;;;5077413;28;20625;-68
2023/03/26 08:14:32;;;;;;;6.20;2.53;;;8.20;99.90;;;;;;5077543;28;20496;-69
2023/03/26 08:17:06;;;;;;;2.80;1.83;;;8.20;99.90;;;;;;5077769;28;20438;-68
2023/03/26 08:19:45;;;;;;;4.73;2.27;;;8.20;99.90;;;;;;5077510;28;20832;-69
2023/03/26 08:22:19;;;;;;;4.33;2.17;;;8.30;99.90;;;;;;5077533;28;20449;-67
2023/03/26 08:24:58;;;;;;;5.20;2.27;;;8.30;99.90;;;;;;5077652;28;20443;-69
2023/03/26 08:27:36;;;;;;;5.57;1.87;;;8.40;99.90;;;;;;5077576;28;20469;-68
2023/03/26 08:30:08;;;;;;;4.50;2.03;;;8.40;99.90;;;;;;5077509;28;20477;-68
2023/03/26 08:32:36;;;;;;;5.10;1.90;;;8.40;99.90;;;;;;5077167;28;20887;-68
2023/03/26 08:35:03;;;;;;;6.70;2.20;;;8.50;99.90;;;;;;5077342;28;20545;-69
2023/03/26 08:37:32;;;;;;;4.30;2.00;;;8.60;99.90;;;;;;5077447;28;20831;-69
2023/03/26 08:39:59;;;;;;;4.97;2.10;;;8.60;99.90;;;;;;5077476;28;20454;-69
2023/03/26 08:42:52;;;;;;;4.00;1.50;;;8.50;99.90;;;;;;5077655;28;20489;-68
2023/03/26 08:45:41;;;;;;;3.50;1.83;;;8.50;99.90;;;;;;5076981;28;20493;-69
2023/03/26 08:48:45;;;;;;;7.20;1.93;;;8.50;99.90;;;;;;5077366;28;20465;-69
2023/03/26 08:52:02;;;;;;;5.63;1.70;;;8.40;99.90;;;;;;5077650;28;20515;-69
2023/03/26 08:55:03;;;;;;;4.13;2.30;;;8.30;99.90;;;;;;5035796;28;20942;-70
2023/03/26 08:58:12;;;;;;;7.50;2.23;;;7.90;99.90;;;;;;5076606;28;20442;-69
2023/03/26 09:01:05;;;;;;;7.03;2.43;;;7.70;99.90;;;;;;5077246;28;20434;-69
2023/03/26 09:04:05;;;;;;;4.10;2.80;;;7.70;99.90;;;;;;5076707;28;20488;-69
2023/03/26 09:06:50;;;;;;;7.80;2.93;;;7.60;99.90;;;;;;5076848;28;20466;-69
2023/03/26 09:09:52;;;;;;;6.67;3.00;;;7.60;99.90;;;;;;5076547;28;20531;-69
2023/03/26 09:12:49;;;;;;;7.97;3.20;;;7.60;99.90;;;;;;5076894;28;20547;-69
2023/03/26 09:15:41;;;;;;;4.10;2.60;;;7.70;99.90;;;;;;5076379;28;20442;-69
2023/03/26 09:19:05;;;;;;;7.00;2.77;;;7.80;99.90;;;;;;5076697;28;20491;-68
2023/03/26 09:22:15;;;;;;;6.50;3.07;;;7.80;99.90;;;;;;5077320;28;20765;-67
2023/03/26 09:25:18;;;;;;;6.03;2.73;;;7.80;99.90;;;;;;5076065;28;20485;-67
2023/03/26 09:28:14;;;;;;;3.43;2.30;;;7.80;99.90;;;;;;5076141;28;20462;-67
2023/03/26 09:31:18;;;;;;;5.77;2.60;;;7.60;99.90;;;;;;5076059;28;20538;-66
2023/03/26 09:34:13;;;;;;;5.20;2.37;;;7.50;99.90;;;;;;5076641;28;20468;-66
2023/03/26 09:36:54;;;;;;;3.33;2.17;;;7.40;99.90;;;;;;5076239;28;20514;-65
2023/03/26 09:39:43;;;;;;;4.80;2.50;;;7.40;99.90;;;;;;5076243;28;20449;-66
2023/03/26 09:42:18;;;;;;;4.00;2.10;;;7.40;99.90;;;;;;5076060;28;20775;-67
2023/03/26 09:45:30;;;;;;;5.40;2.87;;;7.40;99.90;;;;;;5075800;28;20894;-67
2023/03/26 09:48:32;;;;;;;2.53;1.80;;;7.20;99.90;;;;;;5051347;28;20581;-67
2023/03/26 09:51:25;;;;;;;3.00;1.50;;;7.10;99.90;;;;;;5075014;28;20444;-68
2023/03/26 09:54:06;;;;;;;5.23;2.23;;;7.10;99.90;;;;;;5076409;28;20796;-69
2023/03/26 09:56:43;;;;;;;4.00;2.17;;;7.00;99.90;;;;;;5075414;28;20446;-66
2023/03/26 10:00:05;;;;;;;8.57;2.90;;;7.00;99.90;;;;;;5075749;28;20468;-67
2023/03/26 10:02:49;;;;;;;6.07;2.43;;;7.00;99.90;;;;;;5051203;28;20486;-68
2023/03/26 10:05:30;;;;;;;5.20;2.63;;;7.10;99.90;;;;;;5075515;28;20478;-67
2023/03/26 10:08:11;;;;;;;8.67;2.80;;;7.00;99.90;;;;;;5075900;28;20476;-67
2023/03/26 10:10:47;;;;;;;5.50;2.23;;;6.90;99.90;;;;;;5075099;28;20819;-67
2023/03/26 10:13:25;;;;;;;6.40;2.60;;;6.90;99.90;;;;;;5075286;28;20902;-66
2023/03/26 10:16:17;;;;;;;7.70;2.83;;;7.00;99.90;;;;;;5075048;28;20883;-66
2023/03/26 10:18:54;;;;;;;8.57;3.33;;;7.20;99.90;;;;;;5075435;28;20470;-69
2023/03/26 10:21:30;;;;;;;5.43;2.93;;;7.30;99.90;;;;;;5075207;28;20481;-70
2023/03/26 10:24:16;;;;;;;8.27;2.93;;;7.40;99.90;;;;;;5075647;28;20503;-70
2023/03/26 10:26:57;;;;;;;4.80;2.90;;;7.50;99.90;;;;;;5076138;28;20535;-70
2023/03/26 10:29:58;;;;;;;6.40;2.43;;;7.70;99.90;;;;;;5075292;28;20438;-70
2023/03/26 10:32:33;;;;;;;9.80;2.90;;;7.80;99.90;;;;;;5067293;28;20446;-71
2023/03/26 10:35:09;;;;;;;7.27;3.07;;;7.90;99.90;;;;;;5075366;28;20529;-69
2023/03/26 10:37:49;;;;;;;7.30;3.20;;;7.80;99.90;;;;;;5074948;28;20517;-67
2023/03/26 10:40:23;;;;;;;7.10;3.03;;;7.70;99.90;;;;;;5075051;28;20435;-67
2023/03/26 10:43:12;;;;;;;6.30;2.80;;;7.60;99.90;;;;;;5074862;28;20438;-68
2023/03/26 10:45:55;;;;;;;11.07;3.47;;;7.60;99.90;;;;;;5074956;28;20438;-68
2023/03/26 10:48:40;;;;;;;4.60;2.90;;;7.50;99.90;;;;;;5075078;28;20502;-69
2023/03/26 10:51:23;;;;;;;7.10;3.50;;;7.50;99.90;;;;;;5074968;28;20601;-68
2023/03/26 10:53:53;;;;;;;8.37;3.10;;;7.50;99.90;;;;;;5074981;28;20533;-69
2023/03/26 10:56:28;;;;;;;11.87;3.70;;;7.50;99.90;;;;;;5074630;28;20545;-69
2023/03/26 10:58:56;;;;;;;11.13;3.60;;;7.50;99.90;;;;;;5074749;28;20847;-69
2023/03/26 11:01:35;;;;;;;5.27;3.23;;;7.50;99.90;;;;;;5074956;28;20454;-70
2023/03/26 11:04:10;;;;;;;8.97;4.43;;;7.60;99.90;;;;;;5074567;28;20572;-69
2023/03/26 11:06:45;;;;;;;7.50;4.13;;;7.80;99.90;;;;;;5075268;28;20469;-69
2023/03/26 11:09:24;;;;;;;4.57;3.57;;;7.90;99.90;;;;;;5074897;28;20442;-69
2023/03/26 11:12:00;;;;;;;6.17;3.27;;;8.10;99.90;;;;;;5075322;28;20723;-70
2023/03/26 11:14:33;;;;;;;10.37;3.30;;;8.30;99.90;;;;;;5075207;28;20443;-69
2023/03/26 11:17:07;;;;;;;10.37;5.00;;;8.40;99.90;;;;;;5074838;28;20534;-69
2023/03/26 11:19:41;;;;;;;4.87;2.77;;;8.50;99.90;;;;;;5074972;28;20471;-69
2023/03/26 11:22:19;;;;;;;8.43;3.70;;;8.80;99.90;;;;;;5074848;28;20529;-68
2023/03/26 11:25:09;;;;;;;6.30;3.50;;;9.00;99.90;;;;;;5074448;28;20914;-68
2023/03/26 11:27:49;;;;;;;5.70;3.20;;;9.10;99.90;;;;;;5074864;28;20478;-68
2023/03/26 11:30:27;;;;;;;5.00;2.90;;;9.30;99.90;;;;;;5074446;28;20442;-68
2023/03/26 11:32:58;;;;;;;6.63;2.93;;;9.70;99.90;;;;;;5074720;28;20438;-68
2023/03/26 11:35:29;;;;;;;7.20;2.73;;;10.40;99.90;;;;;;5074780;28;20500;-69
2023/03/26 11:38:01;;;;;;;4.27;3.10;;;11.00;99.90;;;;;;5074274;28;20521;-69
2023/03/26 11:40:32;;;;;;;6.27;2.80;;;11.50;99.90;;;;;;5074317;28;20561;-69
2023/03/26 11:43:03;;;;;;;4.90;2.10;;;11.70;99.90;;;;;;5074241;28;20438;-68
2023/03/26 11:45:35;;;;;;;4.83;2.77;;;11.80;99.90;;;;;;5076046;28;20921;-69
2023/03/26 11:48:08;;;;;;;8.00;2.90;;;11.60;99.90;;;;;;5078222;28;20466;-70
2023/03/26 11:50:39;;;;;;;9.53;3.00;;;11.20;99.90;;;;;;5078064;28;20909;-69
2023/03/26 11:53:12;;;;;;;5.77;2.10;;;11.20;99.90;;;;;;5078151;28;20442;-70
2023/03/26 11:55:41;;;;;;;4.40;2.30;;;11.10;99.90;;;;;;5078968;28;20452;-71
2023/03/26 11:58:26;;;;;;;6.30;2.50;;;11.40;99.90;;;;;;5077718;28;21018;-69
2023/03/26 12:00:55;;;;;;;7.60;2.40;;;11.50;99.90;;;;;;5077842;28;20498;-69
2023/03/26 12:03:22;;;;;;;6.03;2.70;;;11.60;99.90;;;;;;5077599;28;20525;-69
2023/03/26 12:05:52;;;;;;;8.10;3.27;;;11.70;99.90;;;;;;5077777;28;20549;-69
2023/03/26 12:08:21;;;;;;;3.90;2.20;;;11.20;99.90;;;;;;5077463;28;20547;-69
2023/03/26 12:11:00;;;;;;;7.83;2.97;;;10.80;99.90;;;;;;5077784;28;20786;-69
2023/03/26 12:13:35;;;;;;;5.10;2.47;;;10.70;99.90;;;;;;5077534;28;20449;-70
2023/03/26 12:16:11;;;;;;;3.63;2.37;;;10.50;99.90;;;;;;5077782;28;20449;-69
2023/03/26 12:18:40;;;;;;;4.77;2.43;;;10.60;99.90;;;;;;5077195;28;20524;-70
2023/03/26 12:21:09;;;;;;;8.50;2.70;;;11.40;99.90;;;;;;5077135;28;20488;-69
2023/03/26 12:23:42;;;;;;;6.37;2.47;;;11.90;99.90;;;;;;5077578;28;20549;-68
2023/03/26 12:26:17;;;;;;;5.77;2.30;;;11.90;99.90;;;;;;5077349;28;20439;-70
2023/03/26 12:28:47;;;;;;;6.17;2.10;;;12.20;99.90;;;;;;5077145;28;20942;-69
2023/03/26 12:31:17;;;;;;;4.63;2.07;;;12.90;99.90;;;;;;5077105;28;20442;-69
2023/03/26 12:33:45;;;;;;;8.37;1.67;;;13.80;99.90;;;;;;5076895;28;20511;-70
2023/03/26 12:36:22;;;;;;;5.40;2.53;;;14.50;99.90;;;;;;5077161;28;20458;-69
2023/03/26 12:38:49;;;;;;;2.40;1.70;;;15.10;99.90;;;;;;5077135;28;20450;-69
2023/03/26 12:41:17;;;;;;;3.63;1.70;;;15.00;99.90;;;;;;5076993;28;20546;-68
2023/03/26 12:43:47;;;;;;;4.40;2.10;;;14.60;99.90;;;;;;5077239;28;20565;-69
2023/03/26 12:46:23;;;;;;;3.17;1.83;;;14.80;99.90;;;;;;5077169;28;20740;-69
2023/03/26 12:48:52;;;;;;;3.93;2.20;;;14.60;99.90;;;;;;5077077;28;20809;-70
2023/03/26 12:51:36;;;;;;;6.70;1.50;;;14.80;99.90;;;;;;5076638;28;20458;-69
2023/03/26 12:54:17;;;;;;;3.73;1.80;;;14.80;99.90;;;;;;5077041;28;20443;-70
2023/03/26 12:56:58;;;;;;;5.37;1.80;;;14.90;99.90;;;;;;5076803;28;20442;-70
2023/03/26 12:59:47;;;;;;;3.80;1.83;;;14.50;99.90;;;;;;5076993;28;20438;-69
2023/03/26 13:02:43;;;;;;;6.30;1.60;;;13.60;99.90;;;;;;5076607;28;20497;-69
2023/03/26 13:05:32;;;;;;;2.67;1.60;;;13.40;99.90;;;;;;5076454;28;20508;-69
2023/03/26 13:08:14;;;;;;;4.33;1.93;;;12.80;99.90;;;;;;5076327;28;20573;-69
2023/03/26 13:10:50;;;;;;;4.93;1.70;;;12.90;99.90;;;;;;5076520;28;20443;-70
2023/03/26 13:13:37;;;;;;;4.03;1.43;;;13.10;99.90;;;;;;5076373;28;20768;-68
2023/03/26 13:16:12;;;;;;;2.60;1.40;;;13.50;99.90;;;;;;5076358;28;20484;-69
2023/03/26 13:18:48;;;;;;;3.83;1.33;;;13.30;99.90;;;;;;5076024;28;20534;-69
2023/03/26 13:21:23;;;;;;;2.73;1.37;;;13.30;99.90;;;;;;5076112;28;20775;-69
2023/03/26 13:23:58;;;;;;;3.37;1.60;;;13.30;99.90;;;;;;5075608;28;20537;-69
2023/03/26 13:26:36;;;;;;;3.83;1.13;;;13.40;99.90;;;;;;5076010;28;20883;-69
2023/03/26 13:29:13;;;;;;;2.57;1.30;;;13.40;99.90;;;;;;5075825;28;20553;-69